sensor_id;sensor_type;location;lat;lon;timestamp;temperature;humidity
18898;DHT22;9581;49.484;8.556;2023-11-19T00:01:32;8.70;99.90
18898;DHT22;9581;49.484;8.556;2023-11-19T00:03:59;8.70;99.90
18898;DHT22;9581;49.484;8.556;2023-11-19T00:06:27;8.70;99.90
18898;DHT22;9581;49.484;8.556;2023-11-19T00:08:54;8.70;99.90
18898;DHT22;9581;49.484;8.556;2023-11-19T00:11:21;8.70;99.90
18898;DHT22;9581;49.484;8.556;2023-11-19T00:13:47;8.70;99.90
18898;DHT22;9581;49.484;8.556;2023-11-19T00:16:14;8.60;99.90
18898;DHT22;9581;49.484;8.556;2023-11-19T00:18:41;8.70;99.90
18898;DHT22;9581;49.484;8.556;2023-11-19T00:21:08;8.70;99.90
18898;DHT22;9581;49.484;8.556;2023-11-19T00:23:37;8.70;99.90
18898;DHT22;9581;49.484;8.556;2023-11-19T00:26:04;8.80;99.90
18898;DHT22;9581;49.484;8.556;2023-11-19T00:28:32;8.80;99.90
18898;DHT22;9581;49.484;8.556;2023-11-19T00:30:59;8.80;99.90
18898;DHT22;9581;49.484;8.556;2023-11-19T00:33:26;8.80;99.90
18898;DHT22;9581;49.484;8.556;2023-11-19T00:35:53;8.80;99.90
18898;DHT22;9581;49.484;8.556;2023-11-19T00:38:19;8.80;99.90
18898;DHT22;9581;49.484;8.556;2023-11-19T00:40:48;8.80;99.90
18898;DHT22;9581;49.484;8.556;2023-11-19T00:43:14;8.90;99.90
18898;DHT22;9581;49.484;8.556;2023-11-19T00:45:41;8.90;99.90
18898;DHT22;9581;49.484;8.556;2023-11-19T00:48:08;8.90;99.90
18898;DHT22;9581;49.484;8.556;2023-11-19T00:50:35;8.90;99.90
18898;DHT22;9581;49.484;8.556;2023-11-19T00:53:02;8.90;99.90
18898;DHT22;9581;49.484;8.556;2023-11-19T00:55:30;9.00;99.90
18898;DHT22;9581;49.484;8.556;2023-11-19T00:57:59;9.00;99.90
18898;DHT22;9581;49.484;8.556;2023-11-19T01:00:25;9.00;99.90
18898;DHT22;9581;49.484;8.556;2023-11-19T01:02:53;9.00;99.90
18898;DHT22;9581;49.484;8.556;2023-11-19T01:05:20;9.10;99.90
18898;DHT22;9581;49.484;8.556;2023-11-19T01:07:50;9.00;99.90
18898;DHT22;9581;49.484;8.556;2023-11-19T01:10:19;9.10;99.90
18898;DHT22;9581;49.484;8.556;2023-11-19T01:12:46;9.10;99.90
18898;DHT22;9581;49.484;8.556;2023-11-19T01:15:14;9.10;99.90
18898;DHT22;9581;49.484;8.556;2023-11-19T01:17:41;9.10;99.90
18898;DHT22;9581;49.484;8.556;2023-11-19T01:20:09;9.10;99.90
18898;DHT22;9581;49.484;8.556;2023-11-19T01:22:38;9.10;99.90
18898;DHT22;9581;49.484;8.556;2023-11-19T01:25:06;9.10;99.90
18898;DHT22;9581;49.484;8.556;2023-11-19T01:27:33;9.10;99.90
18898;DHT22;9581;49.484;8.556;2023-11-19T01:30:01;9.20;99.90
18898;DHT22;9581;49.484;8.556;2023-11-19T01:32:31;9.20;99.90
18898;DHT22;9581;49.484;8.556;2023-11-19T01:34:58;9.10;99.90
18898;DHT22;9581;49.484;8.556;2023-11-19T01:37:25;9.20;99.90
18898;DHT22;9581;49.484;8.556;2023-11-19T01:39:52;9.20;99.90
18898;DHT22;9581;49.484;8.556;2023-11-19T01:42:18;9.20;99.90
18898;DHT22;9581;49.484;8.556;2023-11-19T01:44:56;9.20;99.90
18898;DHT22;9581;49.484;8.556;2023-11-19T01:47:24;9.20;99.90
18898;DHT22;9581;49.484;8.556;2023-11-19T01:49:53;9.30;99.90
18898;DHT22;9581;49.484;8.556;2023-11-19T01:52:20;9.20;99.90
18898;DHT22;9581;49.484;8.556;2023-11-19T01:54:47;9.20;99.90
18898;DHT22;9581;49.484;8.556;2023-11-19T01:57:14;9.30;99.90
18898;DHT22;9581;49.484;8.556;2023-11-19T01:59:41;9.20;99.90
18898;DHT22;9581;49.484;8.556;2023-11-19T02:02:08;9.30;99.90
18898;DHT22;9581;49.484;8.556;2023-11-19T02:04:35;9.30;99.90
18898;DHT22;9581;49.484;8.556;2023-11-19T02:07:05;9.30;99.90
18898;DHT22;9581;49.484;8.556;2023-11-19T02:09:32;9.30;99.90
18898;DHT22;9581;49.484;8.556;2023-11-19T02:11:58;9.40;99.90
18898;DHT22;9581;49.484;8.556;2023-11-19T02:14:27;9.40;99.90
18898;DHT22;9581;49.484;8.556;2023-11-19T02:16:54;9.30;99.90
18898;DHT22;9581;49.484;8.556;2023-11-19T02:19:21;9.40;99.90
18898;DHT22;9581;49.484;8.556;2023-11-19T02:21:48;9.40;99.90
18898;DHT22;9581;49.484;8.556;2023-11-19T02:24:17;9.40;99.90
18898;DHT22;9581;49.484;8.556;2023-11-19T02:26:51;9.40;99.90
18898;DHT22;9581;49.484;8.556;2023-11-19T02:29:23;9.40;99.90
18898;DHT22;9581;49.484;8.556;2023-11-19T02:31:49;9.40;99.90
18898;DHT22;9581;49.484;8.556;2023-11-19T02:34:16;9.40;99.90
18898;DHT22;9581;49.484;8.556;2023-11-19T02:36:43;9.50;99.90
18898;DHT22;9581;49.484;8.556;2023-11-19T02:39:10;9.50;99.90
18898;DHT22;9581;49.484;8.556;2023-11-19T02:41:38;9.60;99.90
18898;DHT22;9581;49.484;8.556;2023-11-19T02:44:05;9.60;99.90
18898;DHT22;9581;49.484;8.556;2023-11-19T02:46:36;9.60;99.90
18898;DHT22;9581;49.484;8.556;2023-11-19T02:49:03;9.60;99.90
18898;DHT22;9581;49.484;8.556;2023-11-19T02:51:29;9.60;99.90
18898;DHT22;9581;49.484;8.556;2023-11-19T02:53:56;9.70;99.90
18898;DHT22;9581;49.484;8.556;2023-11-19T02:56:23;9.70;99.90
18898;DHT22;9581;49.484;8.556;2023-11-19T02:58:52;9.70;99.90
18898;DHT22;9581;49.484;8.556;2023-11-19T03:01:22;9.70;99.90
18898;DHT22;9581;49.484;8.556;2023-11-19T03:03:57;9.70;99.90
18898;DHT22;9581;49.484;8.556;2023-11-19T03:06:24;9.70;99.90
18898;DHT22;9581;49.484;8.556;2023-11-19T03:08:51;9.70;99.90
18898;DHT22;9581;49.484;8.556;2023-11-19T03:11:17;9.70;99.90
18898;DHT22;9581;49.484;8.556;2023-11-19T03:13:44;9.80;99.90
18898;DHT22;9581;49.484;8.556;2023-11-19T03:16:12;9.80;99.90
18898;DHT22;9581;49.484;8.556;2023-11-19T03:18:39;9.80;99.90
18898;DHT22;9581;49.484;8.556;2023-11-19T03:21:07;9.80;99.90
18898;DHT22;9581;49.484;8.556;2023-11-19T03:23:34;9.90;99.90
18898;DHT22;9581;49.484;8.556;2023-11-19T03:26:01;9.90;99.90
18898;DHT22;9581;49.484;8.556;2023-11-19T03:28:31;9.90;99.90
18898;DHT22;9581;49.484;8.556;2023-11-19T03:30:57;9.90;99.90
18898;DHT22;9581;49.484;8.556;2023-11-19T03:33:24;10.00;99.90
18898;DHT22;9581;49.484;8.556;2023-11-19T03:35:53;10.00;99.90
18898;DHT22;9581;49.484;8.556;2023-11-19T03:38:23;10.00;99.90
18898;DHT22;9581;49.484;8.556;2023-11-19T03:40:50;10.10;99.90
18898;DHT22;9581;49.484;8.556;2023-11-19T03:43:16;10.20;99.90
18898;DHT22;9581;49.484;8.556;2023-11-19T03:45:44;10.20;99.90
18898;DHT22;9581;49.484;8.556;2023-11-19T03:48:11;10.20;99.90
18898;DHT22;9581;49.484;8.556;2023-11-19T03:50:38;10.20;99.90
18898;DHT22;9581;49.484;8.556;2023-11-19T03:53:05;10.20;99.90
18898;DHT22;9581;49.484;8.556;2023-11-19T03:55:33;10.20;99.90
18898;DHT22;9581;49.484;8.556;2023-11-19T03:58:00;10.30;99.90
18898;DHT22;9581;49.484;8.556;2023-11-19T04:00:27;10.30;99.90
18898;DHT22;9581;49.484;8.556;2023-11-19T04:02:54;10.30;99.90
18898;DHT22;9581;49.484;8.556;2023-11-19T04:05:23;10.40;99.90
18898;DHT22;9581;49.484;8.556;2023-11-19T04:07:50;10.40;99.90
18898;DHT22;9581;49.484;8.556;2023-11-19T04:10:16;10.40;99.90
18898;DHT22;9581;49.484;8.556;2023-11-19T04:12:47;10.40;99.90
18898;DHT22;9581;49.484;8.556;2023-11-19T04:15:14;10.40;99.90
18898;DHT22;9581;49.484;8.556;2023-11-19T04:17:41;10.40;99.90
18898;DHT22;9581;49.484;8.556;2023-11-19T04:20:08;10.50;99.90
18898;DHT22;9581;49.484;8.556;2023-11-19T04:22:37;10.50;99.90
18898;DHT22;9581;49.484;8.556;2023-11-19T04:25:05;10.50;99.90
18898;DHT22;9581;49.484;8.556;2023-11-19T04:27:31;10.50;99.90
18898;DHT22;9581;49.484;8.556;2023-11-19T04:30:00;10.60;99.90
18898;DHT22;9581;49.484;8.556;2023-11-19T04:32:28;10.50;99.90
18898;DHT22;9581;49.484;8.556;2023-11-19T04:34:57;10.60;99.90
18898;DHT22;9581;49.484;8.556;2023-11-19T04:37:24;10.60;99.90
18898;DHT22;9581;49.484;8.556;2023-11-19T04:39:50;10.60;99.90
18898;DHT22;9581;49.484;8.556;2023-11-19T04:42:17;10.70;99.90
18898;DHT22;9581;49.484;8.556;2023-11-19T04:44:45;10.60;99.90
18898;DHT22;9581;49.484;8.556;2023-11-19T04:47:13;10.70;99.90
18898;DHT22;9581;49.484;8.556;2023-11-19T04:49:41;10.70;99.90
18898;DHT22;9581;49.484;8.556;2023-11-19T04:52:09;10.70;99.90
18898;DHT22;9581;49.484;8.556;2023-11-19T04:54:40;10.70;99.90
18898;DHT22;9581;49.484;8.556;2023-11-19T04:57:07;10.70;99.90
18898;DHT22;9581;49.484;8.556;2023-11-19T04:59:36;10.80;99.90
18898;DHT22;9581;49.484;8.556;2023-11-19T05:02:03;10.80;99.90
18898;DHT22;9581;49.484;8.556;2023-11-19T05:04:31;10.80;99.90
18898;DHT22;9581;49.484;8.556;2023-11-19T05:06:58;10.80;99.90
18898;DHT22;9581;49.484;8.556;2023-11-19T05:09:28;10.80;99.90
18898;DHT22;9581;49.484;8.556;2023-11-19T05:11:54;10.90;99.90
18898;DHT22;9581;49.484;8.556;2023-11-19T05:14:23;10.90;99.90
18898;DHT22;9581;49.484;8.556;2023-11-19T05:16:50;10.90;99.90
18898;DHT22;9581;49.484;8.556;2023-11-19T05:19:16;11.00;99.90
18898;DHT22;9581;49.484;8.556;2023-11-19T05:21:47;11.00;99.90
18898;DHT22;9581;49.484;8.556;2023-11-19T05:24:17;11.00;99.90
18898;DHT22;9581;49.484;8.556;2023-11-19T05:26:44;11.00;99.90
18898;DHT22;9581;49.484;8.556;2023-11-19T05:29:12;11.10;99.90
18898;DHT22;9581;49.484;8.556;2023-11-19T05:31:39;11.10;99.90
18898;DHT22;9581;49.484;8.556;2023-11-19T05:34:06;11.10;99.90
18898;DHT22;9581;49.484;8.556;2023-11-19T05:36:33;11.20;99.90
18898;DHT22;9581;49.484;8.556;2023-11-19T05:39:01;11.20;99.90
18898;DHT22;9581;49.484;8.556;2023-11-19T05:41:28;11.20;99.90
18898;DHT22;9581;49.484;8.556;2023-11-19T05:43:55;11.20;99.90
18898;DHT22;9581;49.484;8.556;2023-11-19T05:46:22;11.20;99.90
18898;DHT22;9581;49.484;8.556;2023-11-19T05:48:51;11.20;99.90
18898;DHT22;9581;49.484;8.556;2023-11-19T05:51:17;11.20;99.90
18898;DHT22;9581;49.484;8.556;2023-11-19T05:53:45;11.20;99.90
18898;DHT22;9581;49.484;8.556;2023-11-19T05:56:13;11.30;99.90
18898;DHT22;9581;49.484;8.556;2023-11-19T05:58:41;11.30;99.90
18898;DHT22;9581;49.484;8.556;2023-11-19T06:01:10;11.20;99.90
18898;DHT22;9581;49.484;8.556;2023-11-19T06:03:36;11.30;99.90
18898;DHT22;9581;49.484;8.556;2023-11-19T06:06:04;11.30;99.90
18898;DHT22;9581;49.484;8.556;2023-11-19T06:08:31;11.30;99.90
18898;DHT22;9581;49.484;8.556;2023-11-19T06:10:57;11.20;99.90
18898;DHT22;9581;49.484;8.556;2023-11-19T06:13:27;11.30;99.90
18898;DHT22;9581;49.484;8.556;2023-11-19T06:15:56;11.30;99.90
18898;DHT22;9581;49.484;8.556;2023-11-19T06:18:22;11.40;99.90
18898;DHT22;9581;49.484;8.556;2023-11-19T06:20:50;11.40;99.90
18898;DHT22;9581;49.484;8.556;2023-11-19T06:23:17;11.40;99.90
18898;DHT22;9581;49.484;8.556;2023-11-19T06:25:44;11.40;99.90
18898;DHT22;9581;49.484;8.556;2023-11-19T06:28:11;11.50;99.90
18898;DHT22;9581;49.484;8.556;2023-11-19T06:30:40;11.50;99.90
18898;DHT22;9581;49.484;8.556;2023-11-19T06:33:07;11.50;99.90
18898;DHT22;9581;49.484;8.556;2023-11-19T06:35:34;11.60;99.90
18898;DHT22;9581;49.484;8.556;2023-11-19T06:38:02;11.60;99.90
18898;DHT22;9581;49.484;8.556;2023-11-19T06:40:29;11.60;99.90
18898;DHT22;9581;49.484;8.556;2023-11-19T06:42:56;11.60;99.90
18898;DHT22;9581;49.484;8.556;2023-11-19T06:45:23;11.70;99.90
18898;DHT22;9581;49.484;8.556;2023-11-19T06:47:51;11.70;99.90
18898;DHT22;9581;49.484;8.556;2023-11-19T06:50:18;11.70;99.90
18898;DHT22;9581;49.484;8.556;2023-11-19T06:52:44;11.70;99.90
18898;DHT22;9581;49.484;8.556;2023-11-19T06:55:12;11.70;99.90
18898;DHT22;9581;49.484;8.556;2023-11-19T06:57:38;11.70;99.90
18898;DHT22;9581;49.484;8.556;2023-11-19T07:00:06;11.70;99.90
18898;DHT22;9581;49.484;8.556;2023-11-19T07:02:34;11.80;99.90
18898;DHT22;9581;49.484;8.556;2023-11-19T07:05:02;11.80;99.90
18898;DHT22;9581;49.484;8.556;2023-11-19T07:07:30;11.80;99.90
18898;DHT22;9581;49.484;8.556;2023-11-19T07:09:57;11.80;99.90
18898;DHT22;9581;49.484;8.556;2023-11-19T07:12:23;11.80;99.90
18898;DHT22;9581;49.484;8.556;2023-11-19T07:14:52;11.90;99.90
18898;DHT22;9581;49.484;8.556;2023-11-19T07:17:20;11.90;99.90
18898;DHT22;9581;49.484;8.556;2023-11-19T07:19:49;11.90;99.90
18898;DHT22;9581;49.484;8.556;2023-11-19T07:22:17;11.90;99.90
18898;DHT22;9581;49.484;8.556;2023-11-19T07:24:45;12.00;99.90
18898;DHT22;9581;49.484;8.556;2023-11-19T07:27:12;12.00;99.90
18898;DHT22;9581;49.484;8.556;2023-11-19T07:29:39;12.00;99.90
18898;DHT22;9581;49.484;8.556;2023-11-19T07:32:06;12.00;99.90
18898;DHT22;9581;49.484;8.556;2023-11-19T07:34:34;12.00;99.90
18898;DHT22;9581;49.484;8.556;2023-11-19T07:37:01;12.00;99.90
18898;DHT22;9581;49.484;8.556;2023-11-19T07:39:29;12.00;99.90
18898;DHT22;9581;49.484;8.556;2023-11-19T07:41:56;12.00;99.90
18898;DHT22;9581;49.484;8.556;2023-11-19T07:44:23;12.00;99.90
18898;DHT22;9581;49.484;8.556;2023-11-19T07:46:50;12.00;99.90
18898;DHT22;9581;49.484;8.556;2023-11-19T07:49:17;12.00;99.90
18898;DHT22;9581;49.484;8.556;2023-11-19T07:51:43;12.00;99.90
18898;DHT22;9581;49.484;8.556;2023-11-19T07:54:10;12.00;99.90
18898;DHT22;9581;49.484;8.556;2023-11-19T07:56:38;12.00;99.90
18898;DHT22;9581;49.484;8.556;2023-11-19T07:59:05;12.00;99.90
18898;DHT22;9581;49.484;8.556;2023-11-19T08:01:32;12.00;99.90
18898;DHT22;9581;49.484;8.556;2023-11-19T08:03:58;12.00;99.90
18898;DHT22;9581;49.484;8.556;2023-11-19T08:06:27;12.10;99.90
18898;DHT22;9581;49.484;8.556;2023-11-19T08:08:54;12.10;99.90
18898;DHT22;9581;49.484;8.556;2023-11-19T08:11:20;12.10;99.90
18898;DHT22;9581;49.484;8.556;2023-11-19T08:13:49;12.10;99.90
18898;DHT22;9581;49.484;8.556;2023-11-19T08:16:15;12.20;99.90
18898;DHT22;9581;49.484;8.556;2023-11-19T08:18:43;12.10;99.90
18898;DHT22;9581;49.484;8.556;2023-11-19T08:21:10;12.10;99.90
18898;DHT22;9581;49.484;8.556;2023-11-19T08:23:36;12.10;99.90
18898;DHT22;9581;49.484;8.556;2023-11-19T08:26:04;12.20;99.90
18898;DHT22;9581;49.484;8.556;2023-11-19T08:28:31;12.20;99.90
18898;DHT22;9581;49.484;8.556;2023-11-19T08:31:01;12.30;99.90
18898;DHT22;9581;49.484;8.556;2023-11-19T08:33:29;12.40;99.90
18898;DHT22;9581;49.484;8.556;2023-11-19T08:35:56;12.40;99.90
18898;DHT22;9581;49.484;8.556;2023-11-19T08:38:23;12.40;99.90
18898;DHT22;9581;49.484;8.556;2023-11-19T08:40:50;12.40;99.90
18898;DHT22;9581;49.484;8.556;2023-11-19T08:43:17;12.50;99.90
18898;DHT22;9581;49.484;8.556;2023-11-19T08:45:44;12.60;99.90
18898;DHT22;9581;49.484;8.556;2023-11-19T08:48:12;12.70;99.90
18898;DHT22;9581;49.484;8.556;2023-11-19T08:50:39;12.80;99.90
18898;DHT22;9581;49.484;8.556;2023-11-19T08:53:06;13.00;99.90
18898;DHT22;9581;49.484;8.556;2023-11-19T08:55:33;12.90;99.90
18898;DHT22;9581;49.484;8.556;2023-11-19T08:57:59;13.10;99.90
18898;DHT22;9581;49.484;8.556;2023-11-19T09:00:27;12.90;99.90
18898;DHT22;9581;49.484;8.556;2023-11-19T09:02:55;12.80;99.90
18898;DHT22;9581;49.484;8.556;2023-11-19T09:05:24;12.70;99.90
18898;DHT22;9581;49.484;8.556;2023-11-19T09:07:51;12.70;99.90
18898;DHT22;9581;49.484;8.556;2023-11-19T09:10:18;12.70;99.90
18898;DHT22;9581;49.484;8.556;2023-11-19T09:12:45;12.70;99.90
18898;DHT22;9581;49.484;8.556;2023-11-19T09:15:11;12.90;99.90
18898;DHT22;9581;49.484;8.556;2023-11-19T09:17:38;12.90;99.90
18898;DHT22;9581;49.484;8.556;2023-11-19T09:20:07;13.00;99.90
18898;DHT22;9581;49.484;8.556;2023-11-19T09:22:35;12.90;99.90
18898;DHT22;9581;49.484;8.556;2023-11-19T09:25:02;13.00;99.90
18898;DHT22;9581;49.484;8.556;2023-11-19T09:27:30;13.10;99.90
18898;DHT22;9581;49.484;8.556;2023-11-19T09:29:57;13.00;99.90
18898;DHT22;9581;49.484;8.556;2023-11-19T09:32:24;13.30;99.90
18898;DHT22;9581;49.484;8.556;2023-11-19T09:34:50;15.70;99.90
18898;DHT22;9581;49.484;8.556;2023-11-19T09:37:17;18.10;99.90
18898;DHT22;9581;49.484;8.556;2023-11-19T09:39:45;17.60;99.90
18898;DHT22;9581;49.484;8.556;2023-11-19T09:42:12;16.90;99.90
18898;DHT22;9581;49.484;8.556;2023-11-19T09:44:40;17.30;99.90
18898;DHT22;9581;49.484;8.556;2023-11-19T09:47:11;16.90;99.90
18898;DHT22;9581;49.484;8.556;2023-11-19T09:49:38;16.50;99.90
18898;DHT22;9581;49.484;8.556;2023-11-19T09:52:05;15.80;99.90
18898;DHT22;9581;49.484;8.556;2023-11-19T09:54:32;16.50;99.90
18898;DHT22;9581;49.484;8.556;2023-11-19T09:57:02;16.20;99.90
18898;DHT22;9581;49.484;8.556;2023-11-19T09:59:29;15.50;99.90
18898;DHT22;9581;49.484;8.556;2023-11-19T10:01:56;15.50;99.90
18898;DHT22;9581;49.484;8.556;2023-11-19T10:04:24;15.30;99.90
18898;DHT22;9581;49.484;8.556;2023-11-19T10:06:52;15.10;99.90
18898;DHT22;9581;49.484;8.556;2023-11-19T10:09:19;15.00;99.90
18898;DHT22;9581;49.484;8.556;2023-11-19T10:11:45;15.00;99.90
18898;DHT22;9581;49.484;8.556;2023-11-19T10:14:14;14.90;99.90
18898;DHT22;9581;49.484;8.556;2023-11-19T10:16:41;14.80;99.90
18898;DHT22;9581;49.484;8.556;2023-11-19T10:19:12;15.00;99.90
18898;DHT22;9581;49.484;8.556;2023-11-19T10:21:46;17.90;99.90
18898;DHT22;9581;49.484;8.556;2023-11-19T10:24:12;18.80;99.90
18898;DHT22;9581;49.484;8.556;2023-11-19T10:26:40;19.20;99.90
18898;DHT22;9581;49.484;8.556;2023-11-19T10:29:07;18.80;99.90
18898;DHT22;9581;49.484;8.556;2023-11-19T10:31:36;17.40;99.90
18898;DHT22;9581;49.484;8.556;2023-11-19T10:34:03;16.90;99.90
18898;DHT22;9581;49.484;8.556;2023-11-19T10:36:39;17.10;99.90
18898;DHT22;9581;49.484;8.556;2023-11-19T10:39:09;16.90;99.90
18898;DHT22;9581;49.484;8.556;2023-11-19T10:41:36;17.20;99.90
18898;DHT22;9581;49.484;8.556;2023-11-19T10:44:03;17.40;99.90
18898;DHT22;9581;49.484;8.556;2023-11-19T10:46:39;17.20;99.90
18898;DHT22;9581;49.484;8.556;2023-11-19T10:49:06;17.00;99.90
18898;DHT22;9581;49.484;8.556;2023-11-19T10:51:33;16.90;99.90
18898;DHT22;9581;49.484;8.556;2023-11-19T10:54:03;16.70;99.90
18898;DHT22;9581;49.484;8.556;2023-11-19T10:56:31;16.80;99.90
18898;DHT22;9581;49.484;8.556;2023-11-19T10:58:59;16.80;99.90
18898;DHT22;9581;49.484;8.556;2023-11-19T11:01:31;16.70;99.90
18898;DHT22;9581;49.484;8.556;2023-11-19T11:04:02;16.60;99.90
18898;DHT22;9581;49.484;8.556;2023-11-19T11:06:30;16.60;99.90
18898;DHT22;9581;49.484;8.556;2023-11-19T11:08:58;16.30;99.90
18898;DHT22;9581;49.484;8.556;2023-11-19T11:11:26;16.10;99.90
18898;DHT22;9581;49.484;8.556;2023-11-19T11:13:55;15.90;99.90
18898;DHT22;9581;49.484;8.556;2023-11-19T11:16:24;15.70;99.90
18898;DHT22;9581;49.484;8.556;2023-11-19T11:18:52;15.60;99.90
18898;DHT22;9581;49.484;8.556;2023-11-19T11:21:23;15.50;99.90
18898;DHT22;9581;49.484;8.556;2023-11-19T11:24:31;15.40;99.90
18898;DHT22;9581;49.484;8.556;2023-11-19T11:27:25;15.20;99.90
18898;DHT22;9581;49.484;8.556;2023-11-19T11:30:07;15.20;99.90
18898;DHT22;9581;49.484;8.556;2023-11-19T11:32:41;15.10;99.90
18898;DHT22;9581;49.484;8.556;2023-11-19T11:35:24;15.10;99.90
18898;DHT22;9581;49.484;8.556;2023-11-19T11:38:00;15.10;99.90
18898;DHT22;9581;49.484;8.556;2023-11-19T11:40:28;15.10;99.90
18898;DHT22;9581;49.484;8.556;2023-11-19T11:42:55;15.00;99.90
18898;DHT22;9581;49.484;8.556;2023-11-19T11:45:38;15.00;99.90
18898;DHT22;9581;49.484;8.556;2023-11-19T11:48:12;15.00;99.90
18898;DHT22;9581;49.484;8.556;2023-11-19T11:50:55;15.10;99.90
18898;DHT22;9581;49.484;8.556;2023-11-19T11:53:25;15.50;99.90
18898;DHT22;9581;49.484;8.556;2023-11-19T11:55:54;15.60;99.90
18898;DHT22;9581;49.484;8.556;2023-11-19T11:58:25;15.50;99.90
18898;DHT22;9581;49.484;8.556;2023-11-19T12:00:52;15.70;99.90
18898;DHT22;9581;49.484;8.556;2023-11-19T12:03:20;16.00;99.90
18898;DHT22;9581;49.484;8.556;2023-11-19T12:05:48;16.00;99.90
18898;DHT22;9581;49.484;8.556;2023-11-19T12:08:18;16.20;99.90
18898;DHT22;9581;49.484;8.556;2023-11-19T12:10:48;16.30;99.90
18898;DHT22;9581;49.484;8.556;2023-11-19T12:13:16;16.20;99.90
18898;DHT22;9581;49.484;8.556;2023-11-19T12:16:09;16.10;99.90
18898;DHT22;9581;49.484;8.556;2023-11-19T12:18:39;16.10;99.90
18898;DHT22;9581;49.484;8.556;2023-11-19T12:21:06;16.00;99.90
18898;DHT22;9581;49.484;8.556;2023-11-19T12:23:35;16.00;99.90
18898;DHT22;9581;49.484;8.556;2023-11-19T12:26:03;15.90;99.90
18898;DHT22;9581;49.484;8.556;2023-11-19T12:28:30;15.80;99.90
18898;DHT22;9581;49.484;8.556;2023-11-19T12:31:07;15.80;99.90
18898;DHT22;9581;49.484;8.556;2023-11-19T12:33:36;15.80;99.90
18898;DHT22;9581;49.484;8.556;2023-11-19T12:36:04;15.80;99.90
18898;DHT22;9581;49.484;8.556;2023-11-19T12:38:31;15.70;99.90
18898;DHT22;9581;49.484;8.556;2023-11-19T12:41:06;15.60;99.90
18898;DHT22;9581;49.484;8.556;2023-11-19T12:43:33;15.60;99.90
18898;DHT22;9581;49.484;8.556;2023-11-19T12:46:01;15.50;99.90
18898;DHT22;9581;49.484;8.556;2023-11-19T12:48:28;15.50;99.90
18898;DHT22;9581;49.484;8.556;2023-11-19T12:50:56;15.50;99.90
18898;DHT22;9581;49.484;8.556;2023-11-19T12:53:25;15.40;99.90
18898;DHT22;9581;49.484;8.556;2023-11-19T12:55:53;15.30;99.90
18898;DHT22;9581;49.484;8.556;2023-11-19T12:58:32;15.30;99.90
18898;DHT22;9581;49.484;8.556;2023-11-19T13:01:00;15.30;99.90
18898;DHT22;9581;49.484;8.556;2023-11-19T13:03:31;15.30;99.90
18898;DHT22;9581;49.484;8.556;2023-11-19T13:06:02;15.40;99.90
18898;DHT22;9581;49.484;8.556;2023-11-19T13:08:36;15.40;99.90
18898;DHT22;9581;49.484;8.556;2023-11-19T13:11:04;15.40;99.90
18898;DHT22;9581;49.484;8.556;2023-11-19T13:16:15;15.90;99.90
18898;DHT22;9581;49.484;8.556;2023-11-19T13:18:42;16.00;99.90
18898;DHT22;9581;49.484;8.556;2023-11-19T13:21:10;15.90;99.90
18898;DHT22;9581;49.484;8.556;2023-11-19T13:23:36;15.80;99.90
18898;DHT22;9581;49.484;8.556;2023-11-19T13:26:04;15.60;99.90
18898;DHT22;9581;49.484;8.556;2023-11-19T13:28:31;15.50;99.90
18898;DHT22;9581;49.484;8.556;2023-11-19T13:30:59;15.60;99.90
18898;DHT22;9581;49.484;8.556;2023-11-19T13:33:26;15.70;99.90
18898;DHT22;9581;49.484;8.556;2023-11-19T13:35:53;15.70;99.90
18898;DHT22;9581;49.484;8.556;2023-11-19T13:38:19;15.70;99.90
18898;DHT22;9581;49.484;8.556;2023-11-19T13:40:46;15.60;99.90
18898;DHT22;9581;49.484;8.556;2023-11-19T13:43:13;15.40;99.90
18898;DHT22;9581;49.484;8.556;2023-11-19T13:45:40;15.40;99.90
18898;DHT22;9581;49.484;8.556;2023-11-19T13:48:08;15.40;99.90
18898;DHT22;9581;49.484;8.556;2023-11-19T13:50:35;15.50;99.90
18898;DHT22;9581;49.484;8.556;2023-11-19T13:53:02;15.50;99.90
18898;DHT22;9581;49.484;8.556;2023-11-19T13:55:30;15.50;99.90
18898;DHT22;9581;49.484;8.556;2023-11-19T13:57:57;15.50;99.90
18898;DHT22;9581;49.484;8.556;2023-11-19T14:00:24;15.40;99.90
18898;DHT22;9581;49.484;8.556;2023-11-19T14:02:50;15.30;99.90
18898;DHT22;9581;49.484;8.556;2023-11-19T14:05:19;15.30;99.90
18898;DHT22;9581;49.484;8.556;2023-11-19T14:07:46;15.30;99.90
18898;DHT22;9581;49.484;8.556;2023-11-19T14:10:14;15.20;99.90
18898;DHT22;9581;49.484;8.556;2023-11-19T14:12:41;15.20;99.90
18898;DHT22;9581;49.484;8.556;2023-11-19T14:15:09;15.20;99.90
18898;DHT22;9581;49.484;8.556;2023-11-19T14:17:38;15.10;99.90
18898;DHT22;9581;49.484;8.556;2023-11-19T14:20:05;15.20;99.90
18898;DHT22;9581;49.484;8.556;2023-11-19T14:22:39;15.20;99.90
18898;DHT22;9581;49.484;8.556;2023-11-19T14:25:07;15.10;99.90
18898;DHT22;9581;49.484;8.556;2023-11-19T14:27:36;14.90;99.90
18898;DHT22;9581;49.484;8.556;2023-11-19T14:30:05;14.90;99.90
18898;DHT22;9581;49.484;8.556;2023-11-19T14:32:32;14.90;99.90
18898;DHT22;9581;49.484;8.556;2023-11-19T14:34:58;14.90;99.90
18898;DHT22;9581;49.484;8.556;2023-11-19T14:37:25;14.90;99.90
18898;DHT22;9581;49.484;8.556;2023-11-19T14:39:53;14.80;99.90
18898;DHT22;9581;49.484;8.556;2023-11-19T14:42:20;15.00;99.90
18898;DHT22;9581;49.484;8.556;2023-11-19T14:44:48;15.00;99.90
18898;DHT22;9581;49.484;8.556;2023-11-19T14:47:14;14.90;99.90
18898;DHT22;9581;49.484;8.556;2023-11-19T14:49:41;14.90;99.90
18898;DHT22;9581;49.484;8.556;2023-11-19T14:52:08;14.80;99.90
18898;DHT22;9581;49.484;8.556;2023-11-19T14:54:35;14.80;99.90
18898;DHT22;9581;49.484;8.556;2023-11-19T14:57:04;15.00;99.90
18898;DHT22;9581;49.484;8.556;2023-11-19T14:59:33;14.80;99.90
18898;DHT22;9581;49.484;8.556;2023-11-19T15:02:00;14.80;99.90
18898;DHT22;9581;49.484;8.556;2023-11-19T15:04:28;14.80;99.90
18898;DHT22;9581;49.484;8.556;2023-11-19T15:06:56;14.80;99.90
18898;DHT22;9581;49.484;8.556;2023-11-19T15:09:23;14.80;99.90
18898;DHT22;9581;49.484;8.556;2023-11-19T15:11:50;14.60;99.90
18898;DHT22;9581;49.484;8.556;2023-11-19T15:14:18;14.70;99.90
18898;DHT22;9581;49.484;8.556;2023-11-19T15:16:46;14.50;99.90
18898;DHT22;9581;49.484;8.556;2023-11-19T15:19:13;14.40;99.90
18898;DHT22;9581;49.484;8.556;2023-11-19T15:21:40;14.40;99.90
18898;DHT22;9581;49.484;8.556;2023-11-19T15:24:08;14.40;99.90
18898;DHT22;9581;49.484;8.556;2023-11-19T15:26:36;14.30;99.90
18898;DHT22;9581;49.484;8.556;2023-11-19T15:29:04;14.30;99.90
18898;DHT22;9581;49.484;8.556;2023-11-19T15:31:32;14.30;99.90
18898;DHT22;9581;49.484;8.556;2023-11-19T15:33:59;14.30;99.90
18898;DHT22;9581;49.484;8.556;2023-11-19T15:36:25;14.30;99.90
18898;DHT22;9581;49.484;8.556;2023-11-19T15:38:52;14.20;99.90
18898;DHT22;9581;49.484;8.556;2023-11-19T15:41:19;14.20;99.90
18898;DHT22;9581;49.484;8.556;2023-11-19T15:43:46;14.30;99.90
18898;DHT22;9581;49.484;8.556;2023-11-19T15:46:13;14.20;99.90
18898;DHT22;9581;49.484;8.556;2023-11-19T15:48:42;14.30;99.90
18898;DHT22;9581;49.484;8.556;2023-11-19T15:51:12;14.20;99.90
18898;DHT22;9581;49.484;8.556;2023-11-19T15:53:42;14.20;99.90
18898;DHT22;9581;49.484;8.556;2023-11-19T15:56:12;14.20;99.90
18898;DHT22;9581;49.484;8.556;2023-11-19T15:58:39;14.30;99.90